Ji Run — VRAD3 — position and weather

sailwx.info

Track history (hours):
 
Tides and Currents Weather Stations Pressure Air Temp Water Temp Dewpoint Dewpoint Depression Visibility Wind Speed Wind Dir Waves Ship Positions

Ji Run

Last reported at 2017-Dec-07 17:10 UTC. Time now 2017-Dec-12 06:18 UTC.
Position N 24°30' E 118°39'.

Length 134 m; draft 6 m.

Type: Ship (hazmat cat D). MMSI: 477400900.

Date/timePositionNaut miles runAvg speedWind from/ knotsBaromVisibWave heightAir tempDewpointWater temp
2017-Dec-07 17:10N 24°30' E 118°39'311.5
2017-Dec-07 16:55N 24°28' E 118°37'512.3
2017-Dec-07 16:28N 24°24' E 118°33'612.1
2017-Dec-07 16:00N 24°21' E 118°28'612.7
2017-Dec-07 15:30N 24°20' E 118°21'612.7
2017-Dec-07 15:00N 24°20' E 118°14'2 4.3
2017-Dec-07 14:27N 24°20' E 118°11'0 0.3
2017-Dec-07 14:00N 24°20' E 118°11'511.0
2017-Dec-07 13:30N 24°24' E 118°06'611.3
2017-Dec-07 13:00N 24°29' E 118°03'3 5.7
2017-Dec-07 12:30N 24°31' E 118°05'0 0.0
2017-Dec-07 12:00N 24°31' E 118°05'0 0.0
2017-Dec-07 11:27N 24°31' E 118°05'0 0.0
2017-Dec-07 10:57N 24°31' E 118°05'0 0.0
2017-Dec-07 10:27N 24°31' E 118°05'0 0.0
2017-Dec-07 09:57N 24°31' E 118°05'0 0.0
2017-Dec-07 09:30N 24°31' E 118°05'0 0.0
2017-Dec-07 08:57N 24°31' E 118°05'0 0.0
2017-Dec-07 08:24N 24°31' E 118°05'0 0.0
2017-Dec-07 08:00N 24°31' E 118°05'0 0.0
2017-Dec-07 07:24N 24°31' E 118°05'0 0.0
2017-Dec-07 07:00N 24°31' E 118°05'0 0.0
2017-Dec-07 06:30N 24°31' E 118°05'0 0.0
2017-Dec-07 06:00N 24°31' E 118°05'0 0.0
2017-Dec-07 05:24N 24°31' E 118°05'0 0.0
2017-Dec-07 04:57N 24°31' E 118°05'0 0.0
2017-Dec-07 04:18N 24°31' E 118°05'0 0.0
2017-Dec-07 03:54N 24°31' E 118°05'0 0.0
2017-Dec-07 03:30N 24°31' E 118°05'0 0.0
2017-Dec-07 03:00N 24°31' E 118°05'0 0.0
2017-Dec-07 02:30N 24°31' E 118°05'0 0.0
2017-Dec-07 01:54N 24°31' E 118°05'0 0.0
2017-Dec-07 01:30N 24°31' E 118°05'0 0.0
2017-Dec-07 01:00N 24°31' E 118°05'0 0.0
2017-Dec-07 00:30N 24°31' E 118°05'1 2.2
2017-Dec-07 00:00N 24°30' E 118°04'5 9.9
2017-Dec-06 23:30N 24°25' E 118°04'611.0
2017-Dec-06 23:00N 24°22' E 118°09'611.0
2017-Dec-06 22:30N 24°19' E 118°14'0 0.5
2017-Dec-06 21:56N 24°19' E 118°14'0 0.0
2017-Dec-06 21:29N 24°19' E 118°14'0 0.1
2017-Dec-06 20:59N 24°19' E 118°14'  
2017-Dec-01 23:28N 34°24' E 138°34'612.0
2017-Dec-01 22:58N 34°26' E 138°41'1012.1
2017-Dec-01 22:09N 34°30' E 138°52'213.1
2017-Dec-01 21:59N 34°31' E 138°54'712.5
2017-Dec-01 21:24N 34°35' E 139°02'512.8
2017-Dec-01 21:00N 34°38' E 139°06'912.6
2017-Dec-01 20:15N 34°46' E 139°14'411.7
2017-Dec-01 19:56N 34°49' E 139°17'613.0
2017-Dec-01 19:28N 34°52' E 139°23'612.1
2017-Dec-01 19:00N 34°55' E 139°28'612.4
2017-Dec-01 18:30N 34°59' E 139°34'613.4
2017-Dec-01 18:01N 35°04' E 139°40'713.5
2017-Dec-01 17:31N 35°09' E 139°45'613.0
2017-Dec-01 17:01N 35°15' E 139°46'612.0
2017-Dec-01 16:31N 35°21' E 139°42'611.8
2017-Dec-01 16:01N 35°27' E 139°42'1 1.5
2017-Dec-01 15:31N 35°26' E 139°41'0 0.0
2017-Dec-01 14:59N 35°26' E 139°41'0 0.0
2017-Dec-01 14:29N 35°26' E 139°41'0 0.0
2017-Dec-01 13:59N 35°26' E 139°41'0 0.0
2017-Dec-01 13:29N 35°26' E 139°41'0 0.0
2017-Dec-01 12:59N 35°26' E 139°41'0 0.0
2017-Dec-01 12:29N 35°26' E 139°41'0 0.0
2017-Dec-01 11:59N 35°26' E 139°41'0 0.0
2017-Dec-01 11:29N 35°26' E 139°41'0 0.0
2017-Dec-01 10:59N 35°26' E 139°41'0 0.1
2017-Dec-01 10:30N 35°26' E 139°41'1 1.9
2017-Dec-01 10:00N 35°27' E 139°42'4 7.4
2017-Dec-01 09:31N 35°27' E 139°47'511.0
2017-Dec-01 09:00N 35°31' E 139°51'611.8
2017-Dec-01 08:30N 35°36' E 139°47'0 0.4
2017-Dec-01 07:57N 35°36' E 139°47'0 0.0
2017-Dec-01 07:30N 35°36' E 139°47'0 0.0
2017-Dec-01 07:00N 35°36' E 139°47'0 0.0
2017-Dec-01 06:27N 35°36' E 139°47'0 0.0
2017-Dec-01 05:51N 35°36' E 139°47'0 0.0
2017-Dec-01 05:30N 35°36' E 139°47'0 0.0
2017-Dec-01 05:00N 35°36' E 139°47'0 0.0
2017-Dec-01 04:26N 35°36' E 139°47'0 0.0
2017-Dec-01 03:53N 35°36' E 139°47'0 1.1
2017-Dec-01 03:31N 35°36' E 139°47'3 5.7
2017-Dec-01 03:01N 35°34' E 139°50'5 9.8
2017-Dec-01 02:31N 35°29' E 139°52'713.1
2017-Dec-01 02:00N 35°24' E 139°46'612.3
2017-Dec-01 01:30N 35°18' E 139°44'611.3
2017-Dec-01 01:00N 35°13' E 139°47'611.2
2017-Dec-01 00:30N 35°08' E 139°45'612.8
2017-Dec-01 00:00N 35°03' E 139°41'713.1
2017-Nov-30 23:30N 34°58' E 139°35'1214.3
2017-Nov-30 22:42N 34°52' E 139°23'3014.3
2017-Nov-30 20:36N 34°32' E 138°56'314.8
2017-Nov-30 20:25N 34°32' E 138°53'9913.6
2017-Nov-30 13:06N 34°39' E 136°52'214.3
2017-Nov-30 12:58N 34°40' E 136°50'714.6
2017-Nov-30 12:30N 34°46' E 136°47'714.1
2017-Nov-30 12:00N 34°53' E 136°46'714.0
2017-Nov-30 11:30N 34°60' E 136°47'2 3.3
2017-Nov-30 10:58N 35°02' E 136°48'0 0.0
2017-Nov-30 10:30N 35°02' E 136°48'0 0.0
2017-Nov-30 10:00N 35°02' E 136°48'0 0.0
2017-Nov-30 09:30N 35°02' E 136°48'0 0.0
2017-Nov-30 09:00N 35°02' E 136°48'0 0.0
2017-Nov-30 08:30N 35°02' E 136°48'0 0.0
2017-Nov-30 08:00N 35°02' E 136°48'0 0.0
2017-Nov-30 07:30N 35°02' E 136°48'0 0.1
2017-Nov-30 07:00N 35°02' E 136°48'1 1.5
2017-Nov-30 06:30N 35°01' E 136°48'3 5.6
2017-Nov-30 06:00N 34°58' E 136°47'0 0.1
2017-Nov-30 05:28N 34°58' E 136°47'0 0.0
2017-Nov-30 04:58N 34°58' E 136°47'0 0.0
2017-Nov-30 04:28N 34°58' E 136°47'0 0.0
2017-Nov-30 03:58N 34°58' E 136°47'0 0.1
2017-Nov-30 03:28N 34°58' E 136°47'0 0.1
2017-Nov-30 02:58N 34°58' E 136°47'0 0.0
2017-Nov-30 02:28N 34°58' E 136°47'0 0.0
2017-Nov-30 01:58N 34°58' E 136°47'0 0.0
2017-Nov-30 01:28N 34°58' E 136°47'0 0.0
2017-Nov-30 00:58N 34°58' E 136°47'0 0.0
2017-Nov-30 00:30N 34°58' E 136°47'4 7.9
2017-Nov-30 00:00N 34°54' E 136°46'713.3
2017-Nov-29 23:30N 34°48' E 136°46'612.7
2017-Nov-29 23:00N 34°42' E 136°50'102 8.0
2017-Nov-29 10:13N 33°53' E 135°01'312.7
2017-Nov-29 09:59N 33°56' E 135°00'612.3
2017-Nov-29 09:30N 34°02' E 134°59'612.1
2017-Nov-29 09:00N 34°08' E 134°58'611.2
2017-Nov-29 08:30N 34°13' E 134°59'611.0
2017-Nov-29 08:00N 34°19' E 134°59'611.5
2017-Nov-29 07:30N 34°24' E 135°02'612.1
2017-Nov-29 07:00N 34°28' E 135°08'612.4
2017-Nov-29 06:31N 34°32' E 135°14'612.3
2017-Nov-29 06:00N 34°35' E 135°20'510.4
2017-Nov-29 05:31N 34°39' E 135°24'0 0.6
2017-Nov-29 05:00N 34°39' E 135°24'0 0.0
2017-Nov-29 04:28N 34°39' E 135°24'0 0.0
2017-Nov-29 03:58N 34°39' E 135°24'0 0.0
2017-Nov-29 03:28N 34°39' E 135°24'0 0.0
2017-Nov-29 02:58N 34°39' E 135°24'0 0.0
2017-Nov-29 02:28N 34°39' E 135°24'0 0.0
2017-Nov-29 01:58N 34°39' E 135°24'0 0.0
2017-Nov-29 01:28N 34°39' E 135°24'0 0.0
2017-Nov-29 00:58N 34°39' E 135°24'0 0.0
2017-Nov-29 00:28N 34°39' E 135°24'0 0.0
2017-Nov-28 23:58N 34°39' E 135°24'0 0.0
2017-Nov-28 23:28N 34°39' E 135°24'0 0.0
2017-Nov-28 22:58N 34°39' E 135°24'0 0.1
2017-Nov-28 22:29N 34°39' E 135°24'0 1.1
2017-Nov-28 22:00N 34°38' E 135°24'2 4.0
2017-Nov-28 21:30N 34°37' E 135°22'0 0.1
2017-Nov-28 21:00N 34°37' E 135°22'0 0.0
2017-Nov-28 20:30N 34°37' E 135°22'0 0.0
2017-Nov-28 20:00N 34°37' E 135°22'0 0.0
2017-Nov-28 19:30N 34°37' E 135°22'0 0.0
2017-Nov-28 19:00N 34°37' E 135°22'0 0.0
2017-Nov-28 18:30N 34°37' E 135°22'0 0.0
2017-Nov-28 18:00N 34°37' E 135°22'1 2.0
2017-Nov-28 17:30N 34°37' E 135°21'4 8.3
2017-Nov-28 17:00N 34°35' E 135°16'713.6
2017-Nov-28 16:31N 34°35' E 135°08'713.4
2017-Nov-28 16:01N 34°37' E 135°00'1414.0
2017-Nov-28 15:01N 34°32' E 134°45'714.0
2017-Nov-28 14:30N 34°29' E 134°37'  
Track history (hours):
 
Tides and Currents Weather Stations Pressure Air Temp Water Temp Dewpoint Dewpoint Depression Visibility Wind Speed Wind Dir Waves Ship Positions

Ji Run

Last reported at 2017-Dec-07 17:10 UTC. Time now 2017-Dec-12 06:18 UTC.
Position N 24°30' E 118°39'.

Length 134 m; draft 6 m.

Type: Ship (hazmat cat D). MMSI: 477400900.

Date/timePositionNaut miles runAvg speedWind from/ knotsBaromVisibWave heightAir tempDewpointWater temp
2017-Dec-07 17:10N 24°30' E 118°39'311.5
2017-Dec-07 16:55N 24°28' E 118°37'512.3
2017-Dec-07 16:28N 24°24' E 118°33'612.1
2017-Dec-07 16:00N 24°21' E 118°28'612.7
2017-Dec-07 15:30N 24°20' E 118°21'612.7
2017-Dec-07 15:00N 24°20' E 118°14'2 4.3
2017-Dec-07 14:27N 24°20' E 118°11'0 0.3
2017-Dec-07 14:00N 24°20' E 118°11'511.0
2017-Dec-07 13:30N 24°24' E 118°06'611.3
2017-Dec-07 13:00N 24°29' E 118°03'3 5.7
2017-Dec-07 12:30N 24°31' E 118°05'0 0.0
2017-Dec-07 12:00N 24°31' E 118°05'0 0.0
2017-Dec-07 11:27N 24°31' E 118°05'0 0.0
2017-Dec-07 10:57N 24°31' E 118°05'0 0.0
2017-Dec-07 10:27N 24°31' E 118°05'0 0.0
2017-Dec-07 09:57N 24°31' E 118°05'0 0.0
2017-Dec-07 09:30N 24°31' E 118°05'0 0.0
2017-Dec-07 08:57N 24°31' E 118°05'0 0.0
2017-Dec-07 08:24N 24°31' E 118°05'0 0.0
2017-Dec-07 08:00N 24°31' E 118°05'0 0.0
2017-Dec-07 07:24N 24°31' E 118°05'0 0.0
2017-Dec-07 07:00N 24°31' E 118°05'0 0.0
2017-Dec-07 06:30N 24°31' E 118°05'0 0.0
2017-Dec-07 06:00N 24°31' E 118°05'0 0.0
2017-Dec-07 05:24N 24°31' E 118°05'0 0.0
2017-Dec-07 04:57N 24°31' E 118°05'0 0.0
2017-Dec-07 04:18N 24°31' E 118°05'0 0.0
2017-Dec-07 03:54N 24°31' E 118°05'0 0.0
2017-Dec-07 03:30N 24°31' E 118°05'0 0.0
2017-Dec-07 03:00N 24°31' E 118°05'0 0.0
2017-Dec-07 02:30N 24°31' E 118°05'0 0.0
2017-Dec-07 01:54N 24°31' E 118°05'0 0.0
2017-Dec-07 01:30N 24°31' E 118°05'0 0.0
2017-Dec-07 01:00N 24°31' E 118°05'0 0.0
2017-Dec-07 00:30N 24°31' E 118°05'1 2.2
2017-Dec-07 00:00N 24°30' E 118°04'5 9.9
2017-Dec-06 23:30N 24°25' E 118°04'611.0
2017-Dec-06 23:00N 24°22' E 118°09'611.0
2017-Dec-06 22:30N 24°19' E 118°14'0 0.5
2017-Dec-06 21:56N 24°19' E 118°14'0 0.0
2017-Dec-06 21:29N 24°19' E 118°14'0 0.1
2017-Dec-06 20:59N 24°19' E 118°14'  
2017-Dec-01 23:28N 34°24' E 138°34'612.0
2017-Dec-01 22:58N 34°26' E 138°41'1012.1
2017-Dec-01 22:09N 34°30' E 138°52'213.1
2017-Dec-01 21:59N 34°31' E 138°54'712.5
2017-Dec-01 21:24N 34°35' E 139°02'512.8
2017-Dec-01 21:00N 34°38' E 139°06'912.6
2017-Dec-01 20:15N 34°46' E 139°14'411.7
2017-Dec-01 19:56N 34°49' E 139°17'613.0
2017-Dec-01 19:28N 34°52' E 139°23'612.1
2017-Dec-01 19:00N 34°55' E 139°28'612.4
2017-Dec-01 18:30N 34°59' E 139°34'613.4
2017-Dec-01 18:01N 35°04' E 139°40'713.5
2017-Dec-01 17:31N 35°09' E 139°45'613.0
2017-Dec-01 17:01N 35°15' E 139°46'612.0
2017-Dec-01 16:31N 35°21' E 139°42'611.8
2017-Dec-01 16:01N 35°27' E 139°42'1 1.5
2017-Dec-01 15:31N 35°26' E 139°41'0 0.0
2017-Dec-01 14:59N 35°26' E 139°41'0 0.0
2017-Dec-01 14:29N 35°26' E 139°41'0 0.0
2017-Dec-01 13:59N 35°26' E 139°41'0 0.0
2017-Dec-01 13:29N 35°26' E 139°41'0 0.0
2017-Dec-01 12:59N 35°26' E 139°41'0 0.0
2017-Dec-01 12:29N 35°26' E 139°41'0 0.0
2017-Dec-01 11:59N 35°26' E 139°41'0 0.0
2017-Dec-01 11:29N 35°26' E 139°41'0 0.0
2017-Dec-01 10:59N 35°26' E 139°41'0 0.1
2017-Dec-01 10:30N 35°26' E 139°41'1 1.9
2017-Dec-01 10:00N 35°27' E 139°42'4 7.4
2017-Dec-01 09:31N 35°27' E 139°47'511.0
2017-Dec-01 09:00N 35°31' E 139°51'611.8
2017-Dec-01 08:30N 35°36' E 139°47'0 0.4
2017-Dec-01 07:57N 35°36' E 139°47'0 0.0
2017-Dec-01 07:30N 35°36' E 139°47'0 0.0
2017-Dec-01 07:00N 35°36' E 139°47'0 0.0
2017-Dec-01 06:27N 35°36' E 139°47'0 0.0
2017-Dec-01 05:51N 35°36' E 139°47'0 0.0
2017-Dec-01 05:30N 35°36' E 139°47'0 0.0
2017-Dec-01 05:00N 35°36' E 139°47'0 0.0
2017-Dec-01 04:26N 35°36' E 139°47'0 0.0
2017-Dec-01 03:53N 35°36' E 139°47'0 1.1
2017-Dec-01 03:31N 35°36' E 139°47'3 5.7
2017-Dec-01 03:01N 35°34' E 139°50'5 9.8
2017-Dec-01 02:31N 35°29' E 139°52'713.1
2017-Dec-01 02:00N 35°24' E 139°46'612.3
2017-Dec-01 01:30N 35°18' E 139°44'611.3
2017-Dec-01 01:00N 35°13' E 139°47'611.2
2017-Dec-01 00:30N 35°08' E 139°45'612.8
2017-Dec-01 00:00N 35°03' E 139°41'713.1
2017-Nov-30 23:30N 34°58' E 139°35'1214.3
2017-Nov-30 22:42N 34°52' E 139°23'3014.3
2017-Nov-30 20:36N 34°32' E 138°56'314.8
2017-Nov-30 20:25N 34°32' E 138°53'9913.6
2017-Nov-30 13:06N 34°39' E 136°52'214.3
2017-Nov-30 12:58N 34°40' E 136°50'714.6
2017-Nov-30 12:30N 34°46' E 136°47'714.1
2017-Nov-30 12:00N 34°53' E 136°46'714.0
2017-Nov-30 11:30N 34°60' E 136°47'2 3.3
2017-Nov-30 10:58N 35°02' E 136°48'0 0.0
2017-Nov-30 10:30N 35°02' E 136°48'0 0.0
2017-Nov-30 10:00N 35°02' E 136°48'0 0.0
2017-Nov-30 09:30N 35°02' E 136°48'0 0.0
2017-Nov-30 09:00N 35°02' E 136°48'0 0.0
2017-Nov-30 08:30N 35°02' E 136°48'0 0.0
2017-Nov-30 08:00N 35°02' E 136°48'0 0.0
2017-Nov-30 07:30N 35°02' E 136°48'0 0.1
2017-Nov-30 07:00N 35°02' E 136°48'1 1.5
2017-Nov-30 06:30N 35°01' E 136°48'3 5.6
2017-Nov-30 06:00N 34°58' E 136°47'0 0.1
2017-Nov-30 05:28N 34°58' E 136°47'0 0.0
2017-Nov-30 04:58N 34°58' E 136°47'0 0.0
2017-Nov-30 04:28N 34°58' E 136°47'0 0.0
2017-Nov-30 03:58N 34°58' E 136°47'0 0.1
2017-Nov-30 03:28N 34°58' E 136°47'0 0.1
2017-Nov-30 02:58N 34°58' E 136°47'0 0.0
2017-Nov-30 02:28N 34°58' E 136°47'0 0.0
2017-Nov-30 01:58N 34°58' E 136°47'0 0.0
2017-Nov-30 01:28N 34°58' E 136°47'0 0.0
2017-Nov-30 00:58N 34°58' E 136°47'0 0.0
2017-Nov-30 00:30N 34°58' E 136°47'4 7.9
2017-Nov-30 00:00N 34°54' E 136°46'713.3
2017-Nov-29 23:30N 34°48' E 136°46'612.7
2017-Nov-29 23:00N 34°42' E 136°50'102 8.0
2017-Nov-29 10:13N 33°53' E 135°01'312.7
2017-Nov-29 09:59N 33°56' E 135°00'612.3
2017-Nov-29 09:30N 34°02' E 134°59'612.1
2017-Nov-29 09:00N 34°08' E 134°58'611.2
2017-Nov-29 08:30N 34°13' E 134°59'611.0
2017-Nov-29 08:00N 34°19' E 134°59'611.5
2017-Nov-29 07:30N 34°24' E 135°02'612.1
2017-Nov-29 07:00N 34°28' E 135°08'612.4
2017-Nov-29 06:31N 34°32' E 135°14'612.3
2017-Nov-29 06:00N 34°35' E 135°20'510.4
2017-Nov-29 05:31N 34°39' E 135°24'0 0.6
2017-Nov-29 05:00N 34°39' E 135°24'0 0.0
2017-Nov-29 04:28N 34°39' E 135°24'0 0.0
2017-Nov-29 03:58N 34°39' E 135°24'0 0.0
2017-Nov-29 03:28N 34°39' E 135°24'0 0.0
2017-Nov-29 02:58N 34°39' E 135°24'0 0.0
2017-Nov-29 02:28N 34°39' E 135°24'0 0.0
2017-Nov-29 01:58N 34°39' E 135°24'0 0.0
2017-Nov-29 01:28N 34°39' E 135°24'0 0.0
2017-Nov-29 00:58N 34°39' E 135°24'0 0.0
2017-Nov-29 00:28N 34°39' E 135°24'0 0.0
2017-Nov-28 23:58N 34°39' E 135°24'0 0.0
2017-Nov-28 23:28N 34°39' E 135°24'0 0.0
2017-Nov-28 22:58N 34°39' E 135°24'0 0.1
2017-Nov-28 22:29N 34°39' E 135°24'0 1.1
2017-Nov-28 22:00N 34°38' E 135°24'2 4.0
2017-Nov-28 21:30N 34°37' E 135°22'0 0.1
2017-Nov-28 21:00N 34°37' E 135°22'0 0.0
2017-Nov-28 20:30N 34°37' E 135°22'0 0.0
2017-Nov-28 20:00N 34°37' E 135°22'0 0.0
2017-Nov-28 19:30N 34°37' E 135°22'0 0.0
2017-Nov-28 19:00N 34°37' E 135°22'0 0.0
2017-Nov-28 18:30N 34°37' E 135°22'0 0.0
2017-Nov-28 18:00N 34°37' E 135°22'1 2.0
2017-Nov-28 17:30N 34°37' E 135°21'4 8.3
2017-Nov-28 17:00N 34°35' E 135°16'713.6
2017-Nov-28 16:31N 34°35' E 135°08'713.4
2017-Nov-28 16:01N 34°37' E 135°00'1414.0
2017-Nov-28 15:01N 34°32' E 134°45'714.0
2017-Nov-28 14:30N 34°29' E 134°37'  

Dump ship's entire track history